createdAt,value
2022-11-05T00:00:56.347Z,99975.05
2022-11-05T00:01:58.597Z,99975.93
2022-11-05T00:03:01.241Z,99979.46
2022-11-05T00:04:17.242Z,99979.46
2022-11-05T00:05:19.692Z,99975.93
2022-11-05T00:06:22.405Z,99982.14
2022-11-05T00:08:40.598Z,99981.36
2022-11-05T00:09:42.876Z,99981.19
2022-11-05T00:10:45.541Z,99977.66
2022-11-05T00:11:47.635Z,99983.02
2022-11-05T00:12:50.275Z,99983.02
2022-11-05T00:13:52.420Z,99982.03
2022-11-05T00:14:54.812Z,99979.34
2022-11-05T00:15:56.984Z,99979.34
2022-11-05T00:16:59.645Z,99978.38
2022-11-05T00:18:01.636Z,99985.59
2022-11-05T00:19:04.029Z,99977.54
2022-11-05T00:20:08.485Z,99978.38
2022-11-05T00:21:11.707Z,99984.71
2022-11-05T00:22:13.859Z,99977.54
2022-11-05T00:23:15.940Z,99985.59
2022-11-05T00:24:24.057Z,99980.22
2022-11-05T00:25:23.040Z,99974.86
2022-11-05T00:26:25.235Z,99980.22
2022-11-05T00:27:27.458Z,99982.91
2022-11-05T00:28:29.732Z,99986.44
2022-11-05T00:29:34.433Z,99981.06
2022-11-05T00:30:38.853Z,99974.09
2022-11-05T00:31:41.586Z,99980.22
2022-11-05T00:32:45.078Z,99973.98
2022-11-05T00:33:48.317Z,99984.59
2022-11-05T00:34:50.957Z,99981.06
2022-11-05T00:35:53.994Z,99985.47
2022-11-05T00:36:56.107Z,99979.98
2022-11-05T00:37:58.819Z,99987.20
2022-11-05T00:39:01.242Z,99983.63
2022-11-05T00:40:05.089Z,99984.52
2022-11-05T00:41:07.470Z,99986.31
2022-11-05T00:42:23.029Z,99988.16
2022-11-05T00:43:25.359Z,99989.12
2022-11-05T00:44:27.717Z,99990.08
2022-11-05T00:45:31.476Z,99987.51
2022-11-05T00:46:34.430Z,99983.11
2022-11-05T00:47:37.823Z,99989.58
2022-11-05T00:48:39.887Z,99985.17
2022-11-05T00:49:42.940Z,99990.66
2022-11-05T00:50:46.046Z,99987.98
2022-11-05T00:51:51.912Z,99989.05
2022-11-05T00:52:55.776Z,99981.13
2022-11-05T00:53:58.427Z,99976.71
2022-11-05T00:55:03.883Z,99983.92
2022-11-05T00:56:09.236Z,99980.36
2022-11-05T00:57:12.057Z,99985.84
2022-11-05T00:58:16.261Z,99992.16
2022-11-05T00:59:20.379Z,99989.48
2022-11-05T01:00:23.956Z,99986.80
2022-11-05T01:01:26.929Z,99986.92
2022-11-05T01:02:30.519Z,99985.22
2022-11-05T01:03:35.566Z,99984.23
2022-11-05T01:04:39.065Z,99987.03
2022-11-05T01:05:49.168Z,99990.59
2022-11-05T01:06:52.399Z,99986.92
2022-11-05T01:07:54.963Z,99990.70
2022-11-05T01:08:57.371Z,99985.34
2022-11-05T01:09:59.484Z,99990.70
2022-11-05T01:12:21.066Z,99980.16
2022-11-05T01:13:28.512Z,99981.78
2022-11-05T01:14:33.397Z,99980.94
2022-11-05T01:15:36.851Z,99985.42
2022-11-05T01:16:39.494Z,99984.58
2022-11-05T01:17:41.602Z,99984.58
2022-11-05T01:18:43.665Z,99989.95
2022-11-05T01:19:45.804Z,99985.54
2022-11-05T01:20:47.923Z,99989.95
2022-11-05T01:21:50.046Z,99988.22
2022-11-05T01:22:55.490Z,99992.74
2022-11-05T01:23:58.033Z,99993.59
2022-11-05T01:25:00.187Z,99996.27
2022-11-05T01:26:02.448Z,99997.27
2022-11-05T01:27:04.584Z,99991.89
2022-11-05T01:28:06.749Z,99989.22
2022-11-05T01:29:09.762Z,99995.42
2022-11-05T01:30:12.836Z,99994.58
2022-11-05T01:31:15.050Z,100000.91
2022-11-05T01:32:17.107Z,99993.81
2022-11-05T01:33:19.573Z,99998.45
2022-11-05T01:34:22.353Z,99990.59
2022-11-05T01:35:25.781Z,99989.87
2022-11-05T01:36:28.955Z,99986.54
2022-11-05T01:37:32.044Z,99992.13
2022-11-05T01:38:34.238Z,99990.63
2022-11-05T01:39:36.323Z,99993.54
2022-11-05T01:40:40.778Z,99994.61
2022-11-05T01:41:43.190Z,99991.28
2022-11-05T01:42:46.199Z,99990.62
2022-11-05T01:43:50.506Z,99999.63
2022-11-05T01:45:05.035Z,99993.53
2022-11-05T01:46:08.482Z,99994.61
2022-11-05T01:48:33.189Z,99993.31
2022-11-05T01:49:36.096Z,99995.02
2022-11-05T01:50:44.242Z,99989.88
2022-11-05T01:51:46.441Z,99989.99
2022-11-05T01:52:49.328Z,99996.31
2022-11-05T01:53:56.879Z,99991.94
2022-11-05T01:54:59.040Z,99994.70
2022-11-05T01:56:08.091Z,99994.81
2022-11-05T01:57:10.240Z,99994.81
2022-11-05T01:58:15.756Z,100002.01
2022-11-05T02:00:41.211Z,99995.24
2022-11-05T02:01:43.981Z,99988.94
2022-11-05T02:02:47.053Z,99986.37
2022-11-05T02:03:50.238Z,99991.81
2022-11-05T02:06:08.468Z,99988.49
2022-11-05T02:07:10.845Z,99991.07
2022-11-05T02:08:19.537Z,99992.03
2022-11-05T02:09:30.265Z,99995.66
2022-11-05T02:10:32.753Z,99998.34
2022-11-05T02:11:35.387Z,99998.34
2022-11-05T02:12:38.065Z,100001.91
2022-11-05T02:13:40.184Z,100004.58
2022-11-05T02:14:43.868Z,100009.94
2022-11-05T02:15:59.229Z,100010.79
2022-11-05T02:17:20.663Z,100010.79
2022-11-05T02:19:51.667Z,100010.89
2022-11-05T02:21:10.293Z,100013.47
2022-11-05T02:22:33.986Z,100015.30
2022-11-05T02:24:03.001Z,100012.73
2022-11-05T02:25:25.779Z,100018.20
2022-11-05T02:26:51.357Z,100016.48
2022-11-05T02:27:58.106Z,100026.42
2022-11-05T02:29:20.369Z,100016.80
2022-11-05T02:30:35.515Z,100015.92
2022-11-05T02:31:44.449Z,100025.03
2022-11-05T02:33:05.197Z,100022.45
2022-11-05T02:36:07.526Z,100022.79
2022-11-05T02:37:39.052Z,100023.63
2022-11-05T02:39:19.119Z,100026.42
2022-11-05T02:42:03.665Z,100027.70
2022-11-05T02:44:47.753Z,100032.33
2022-11-05T02:46:14.494Z,100029.53
2022-11-05T02:47:29.621Z,100026.95
2022-11-05T02:48:47.435Z,100027.80
2022-11-05T02:50:27.802Z,100031.33
2022-11-05T02:51:39.954Z,100020.72
2022-11-05T02:52:48.825Z,100027.91
2022-11-05T02:55:47.103Z,100024.51
2022-11-05T02:56:50.534Z,100025.34
2022-11-05T02:57:52.996Z,100030.80
2022-11-05T02:58:55.855Z,100024.56
2022-11-05T03:00:03.803Z,100025.45
2022-11-05T03:01:08.094Z,100025.34
2022-11-05T03:02:11.037Z,100019.98
2022-11-05T03:03:19.977Z,100021.78
2022-11-05T03:04:22.848Z,100016.32
2022-11-05T03:05:28.108Z,100010.96
2022-11-05T03:06:55.246Z,100013.56
2022-11-05T03:08:00.691Z,100007.33
2022-11-05T03:09:23.279Z,100008.09
2022-11-05T03:10:38.466Z,100000.06
2022-11-05T03:11:50.671Z,100007.11
2022-11-05T03:13:05.699Z,100007.98
2022-11-05T03:14:24.751Z,100007.98
2022-11-05T03:15:59.540Z,100000.91
2022-11-05T03:17:14.290Z,100000.91
2022-11-05T03:18:29.289Z,99998.23
2022-11-05T03:19:41.042Z,100004.54
2022-11-05T03:22:15.702Z,100000.39
2022-11-05T03:24:46.952Z,100003.19
2022-11-05T03:25:53.202Z,100005.60
2022-11-05T03:27:00.273Z,100004.76
2022-11-05T03:28:03.838Z,100006.48
2022-11-05T03:29:08.560Z,100007.33
2022-11-05T03:30:11.735Z,100001.97
2022-11-05T03:31:14.203Z,100007.33
2022-11-05T03:32:16.884Z,100009.05
2022-11-05T03:33:21.875Z,100012.58
2022-11-05T03:35:41.611Z,100015.38
2022-11-05T03:36:46.469Z,100012.58
2022-11-05T03:37:49.506Z,100016.13
2022-11-05T03:38:52.667Z,100017.83
2022-11-05T03:39:57.693Z,100026.74
2022-11-05T03:41:03.068Z,100023.11
2022-11-05T03:42:06.628Z,100025.78
2022-11-05T03:43:09.416Z,100023.00
2022-11-05T03:44:12.456Z,100030.05
2022-11-05T03:45:16.890Z,100024.69
2022-11-05T03:47:46.721Z,100022.05
2022-11-05T03:48:50.143Z,100025.46
2022-11-05T03:50:19.852Z,100024.62
2022-11-05T03:51:43.284Z,100020.11
2022-11-05T03:52:49.574Z,100020.11
2022-11-05T03:55:06.949Z,100029.21
2022-11-05T03:57:31.912Z,100031.89
2022-11-05T03:58:33.985Z,100033.61
2022-11-05T03:59:44.193Z,100035.33
2022-11-05T04:00:49.276Z,100030.93
2022-11-05T04:01:51.486Z,100038.02
2022-11-05T04:02:55.645Z,100039.70
2022-11-05T04:03:58.166Z,100040.58
2022-11-05T04:05:00.455Z,100029.76
2022-11-05T04:06:03.871Z,100036.92
2022-11-05T04:07:06.023Z,100026.20
2022-11-05T04:08:14.063Z,100029.76
2022-11-05T04:09:12.816Z,100020.84
2022-11-05T04:10:15.506Z,100026.20
2022-11-05T04:11:18.130Z,100027.92
2022-11-05T04:12:21.114Z,100022.56
2022-11-05T04:13:24.288Z,100023.41
2022-11-05T04:14:26.728Z,100014.53
2022-11-05T04:15:28.716Z,100024.29
2022-11-05T04:16:30.831Z,100017.20
2022-11-05T04:17:33.059Z,100018.05
2022-11-05T04:18:35.142Z,100025.14
2022-11-05T04:19:38.760Z,100020.73
2022-11-05T04:20:40.974Z,100022.45
2022-11-05T04:21:44.101Z,100029.54
2022-11-05T04:22:47.038Z,100028.59
2022-11-05T04:23:49.383Z,100028.70
2022-11-05T04:24:51.560Z,100031.27
2022-11-05T04:25:53.633Z,100035.64
2022-11-05T04:26:55.754Z,100034.80
2022-11-05T04:27:58.912Z,100031.16
2022-11-05T04:29:06.723Z,100032.11
2022-11-05T04:30:06.277Z,100023.52
2022-11-05T04:31:09.967Z,100023.52
2022-11-05T04:32:12.190Z,100038.23
2022-11-05T04:33:15.516Z,100043.48
2022-11-05T04:34:17.923Z,100039.93
2022-11-05T04:35:20.285Z,100039.93
2022-11-05T04:36:23.405Z,100039.93
2022-11-05T04:37:25.535Z,100043.48
2022-11-05T04:38:27.653Z,100044.34
2022-11-05T04:39:30.125Z,100040.92
2022-11-05T04:40:32.657Z,100054.20
2022-11-05T04:41:35.841Z,100050.55
2022-11-05T04:42:38.003Z,100050.65
2022-11-05T04:43:41.916Z,100057.73
2022-11-05T04:44:44.144Z,100058.58
2022-11-05T04:45:47.315Z,100062.14
2022-11-05T04:46:49.488Z,100064.05
2022-11-05T04:47:52.580Z,100067.61
2022-11-05T04:48:54.682Z,100079.17
2022-11-05T04:49:57.773Z,100070.28
2022-11-05T04:51:01.620Z,100071.13
2022-11-05T04:52:03.966Z,100069.30
2022-11-05T04:53:06.073Z,100074.66
2022-11-05T04:54:08.963Z,100075.53
2022-11-05T04:55:11.048Z,100078.11
2022-11-05T04:56:17.398Z,100072.75
2022-11-05T04:57:20.450Z,100077.23
2022-11-05T04:58:23.335Z,100071.88
2022-11-05T04:59:25.460Z,100078.22
2022-11-05T05:00:28.476Z,100073.70
2022-11-05T05:01:31.349Z,100070.17
2022-11-05T05:02:35.283Z,100073.70
2022-11-05T05:03:37.840Z,100074.55
2022-11-05T05:04:40.574Z,100077.23
2022-11-05T05:05:43.764Z,100080.79
2022-11-05T05:06:46.126Z,100078.11
2022-11-05T05:07:48.220Z,100078.11
2022-11-05T05:08:50.798Z,100077.23
2022-11-05T05:09:54.019Z,100077.23
2022-11-05T05:10:58.130Z,100079.06
2022-11-05T05:12:01.388Z,100080.89
2022-11-05T05:13:03.470Z,100081.74
2022-11-05T05:14:06.186Z,100091.61
2022-11-05T05:15:08.281Z,100088.05
2022-11-05T05:16:22.851Z,100097.92
2022-11-05T05:17:25.198Z,100101.45
2022-11-05T05:18:27.283Z,100102.44
2022-11-05T05:19:29.418Z,100101.56
2022-11-05T05:20:31.523Z,100102.44
2022-11-05T05:21:34.051Z,100103.39
2022-11-05T05:22:36.244Z,100109.60
2022-11-05T05:23:38.237Z,100107.80
2022-11-05T05:24:40.708Z,100110.48
2022-11-05T05:26:56.983Z,100116.81
2022-11-05T05:27:59.473Z,100117.42
2022-11-05T05:29:03.155Z,100124.62
2022-11-05T05:30:07.081Z,100120.10
2022-11-05T05:31:09.501Z,100122.78
2022-11-05T05:32:12.328Z,100125.57
2022-11-05T05:33:16.322Z,100114.85
2022-11-05T05:34:18.459Z,100122.89
2022-11-05T05:35:20.912Z,100128.36
2022-11-05T05:36:23.112Z,100126.56
2022-11-05T05:37:25.737Z,100124.83
2022-11-05T05:38:28.486Z,100136.39
2022-11-05T05:39:31.469Z,100133.72
2022-11-05T05:40:34.445Z,100137.38
2022-11-05T05:41:37.974Z,100132.02
2022-11-05T05:42:43.397Z,100136.50
2022-11-05T05:43:45.197Z,100139.18
2022-11-05T05:44:47.295Z,100143.69
2022-11-05T05:45:49.412Z,100140.13
2022-11-05T05:46:53.650Z,100147.33
2022-11-05T05:47:56.362Z,100142.92
2022-11-05T05:48:58.559Z,100135.94
2022-11-05T05:50:00.756Z,100135.94
2022-11-05T05:51:04.772Z,100142.28
2022-11-05T05:52:06.821Z,100144.08
2022-11-05T05:53:09.592Z,100144.08
2022-11-05T05:54:12.620Z,100149.44
2022-11-05T05:55:15.861Z,100153.95
2022-11-05T05:56:18.220Z,100153.11
2022-11-05T05:57:20.303Z,100155.78
2022-11-05T05:58:23.117Z,100154.91
2022-11-05T05:59:25.294Z,100161.99
2022-11-05T06:00:27.500Z,100159.31
2022-11-05T06:01:29.899Z,100158.36
2022-11-05T06:02:35.333Z,100156.53
2022-11-05T06:03:38.724Z,100158.25
2022-11-05T06:04:41.091Z,100163.61
2022-11-05T06:05:44.169Z,100163.61
2022-11-05T06:06:48.275Z,100159.10
2022-11-05T06:07:58.706Z,100161.89
2022-11-05T06:09:01.379Z,100164.56
2022-11-05T06:10:04.624Z,100168.09
2022-11-05T06:11:08.277Z,100170.88
2022-11-05T10:26:31.204Z,100333.38
2022-11-05T10:27:35.663Z,100334.65
2022-11-05T10:28:37.969Z,100335.23
2022-11-05T10:29:40.082Z,100344.61
2022-11-05T10:30:43.688Z,100345.05
2022-11-05T10:31:45.893Z,100339.26
2022-11-05T10:32:49.137Z,100346.66
2022-11-05T10:33:58.529Z,100340.80
2022-11-05T10:35:02.229Z,100341.98
2022-11-05T10:36:06.631Z,100340.42
2022-11-05T10:37:09.880Z,100331.88
2022-11-05T10:38:13.231Z,100336.67
2022-11-05T10:39:18.523Z,100336.13
2022-11-05T10:40:48.936Z,100335.48
2022-11-05T10:41:58.893Z,100335.86
2022-11-05T10:43:19.090Z,100337.78
2022-11-05T10:45:49.994Z,100315.63
2022-11-05T10:47:19.804Z,100323.81
2022-11-05T10:48:44.146Z,100317.18
2022-11-05T10:49:56.856Z,100317.56
2022-11-05T10:50:59.094Z,100309.19
2022-11-05T10:52:04.738Z,100318.58
2022-11-05T10:54:24.673Z,100301.42
2022-11-05T10:55:33.074Z,100303.58
2022-11-05T10:56:38.466Z,100308.92
2022-11-05T10:57:40.719Z,100313.80
2022-11-05T10:58:46.403Z,100297.57
2022-11-05T10:59:49.582Z,100305.25
2022-11-05T11:00:55.908Z,100295.31
2022-11-05T11:02:04.425Z,100295.31
2022-11-05T11:03:28.627Z,100309.88
2022-11-05T11:04:37.720Z,100315.80
2022-11-05T11:05:38.979Z,100318.25
2022-11-05T11:06:47.741Z,100315.30
2022-11-05T11:08:03.179Z,100313.31
2022-11-05T11:09:08.020Z,100313.12
2022-11-05T11:11:40.833Z,100323.58
2022-11-05T11:12:42.939Z,100327.66
2022-11-05T11:13:51.419Z,100326.61
2022-11-05T11:16:17.611Z,100326.46
2022-11-05T11:17:27.357Z,100327.86
2022-11-05T11:18:40.238Z,100332.17
2022-11-05T11:19:42.197Z,100331.22
2022-11-05T11:20:45.367Z,100339.94
2022-11-05T11:22:07.351Z,100333.61
2022-11-05T11:23:15.021Z,100333.52
2022-11-05T11:24:21.349Z,100340.59
2022-11-05T11:25:25.806Z,100337.83
2022-11-05T11:27:47.586Z,100333.45
2022-11-05T11:28:59.344Z,100338.51
2022-11-05T11:30:02.171Z,100341.94
2022-11-05T11:31:11.315Z,100335.73
2022-11-05T11:32:19.874Z,100339.16
2022-11-05T11:33:24.968Z,100340.05
2022-11-05T11:34:32.648Z,100332.77
2022-11-05T11:35:36.089Z,100332.77
2022-11-05T11:37:52.767Z,100336.41
2022-11-05T11:41:33.519Z,100340.73
2022-11-05T11:42:37.806Z,100346.64
2022-11-05T11:43:40.270Z,100344.81
2022-11-05T11:44:44.060Z,100345.69
2022-11-05T11:47:02.681Z,100352.09
2022-11-05T11:48:06.815Z,100348.27
2022-11-05T11:49:12.649Z,100350.10
2022-11-05T11:50:33.621Z,100351.80
2022-11-05T11:51:37.606Z,100355.36
2022-11-05T11:52:40.726Z,100357.06
2022-11-05T11:53:43.989Z,100357.06
2022-11-05T11:54:46.882Z,100358.78
2022-11-05T11:56:00.831Z,100361.37
2022-11-05T11:57:02.957Z,100354.31
2022-11-05T11:58:06.083Z,100358.69
2022-11-05T12:00:27.471Z,100353.55
2022-11-05T12:02:10.363Z,100357.74
2022-11-05T12:03:51.857Z,100356.89
2022-11-05T12:05:09.433Z,100350.75
2022-11-05T12:06:35.928Z,100344.45
2022-11-05T12:07:42.427Z,100348.08
2022-11-05T12:11:04.132Z,100346.73
2022-11-05T12:12:13.600Z,100349.13
2022-11-05T12:13:23.214Z,100352.84
2022-11-05T12:14:49.494Z,100348.47
2022-11-05T12:16:13.252Z,100347.59
2022-11-05T12:17:40.147Z,100343.11
2022-11-05T12:18:55.285Z,100343.11
2022-11-05T12:21:51.417Z,100336.32
2022-11-05T12:23:05.606Z,100336.98
2022-11-05T12:24:45.437Z,100344.16
2022-11-05T12:25:57.921Z,100345.11
2022-11-05T12:27:22.970Z,100354.09
2022-11-05T12:29:04.661Z,100346.05
2022-11-05T12:31:23.586Z,100342.81
2022-11-05T12:32:39.393Z,100342.53
2022-11-05T12:33:57.831Z,100342.63
2022-11-05T12:35:27.293Z,100338.22
2022-11-05T12:37:04.361Z,100346.16
2022-11-05T12:39:44.977Z,100345.50
2022-11-05T12:42:14.196Z,100340.23
2022-11-05T12:43:36.852Z,100348.92
2022-11-05T12:46:25.492Z,100343.96
2022-11-05T12:48:52.553Z,100340.34
2022-11-05T12:50:13.231Z,100344.45
2022-11-05T12:51:38.832Z,100344.45
2022-11-05T12:52:56.644Z,100337.27
2022-11-05T12:54:14.418Z,100342.72
2022-11-05T12:56:49.022Z,100354.58
2022-11-05T12:57:53.215Z,100358.88
2022-11-05T12:58:59.216Z,100355.33
2022-11-05T13:00:22.630Z,100359.83
2022-11-05T13:01:34.825Z,100353.62
2022-11-05T13:03:02.697Z,100353.62
2022-11-05T13:04:09.026Z,100359.83
2022-11-05T13:05:30.850Z,100370.54
2022-11-05T13:06:37.103Z,100364.34
2022-11-05T13:07:43.054Z,100362.61
2022-11-05T13:10:19.687Z,100368.16
2022-11-05T13:11:45.688Z,100377.72
2022-11-05T13:12:51.245Z,100377.72
2022-11-05T13:14:10.027Z,100375.89
2022-11-05T13:15:33.109Z,100375.05
2022-11-05T13:16:41.828Z,100379.52
2022-11-05T13:17:53.931Z,100386.60
2022-11-05T13:19:14.602Z,100383.92
2022-11-05T13:20:23.101Z,100389.18
2022-11-05T13:21:26.999Z,100390.03
2022-11-05T13:22:38.679Z,100395.39
2022-11-05T13:23:52.152Z,100398.06
2022-11-05T13:24:59.056Z,100397.12
2022-11-05T13:26:20.784Z,100393.59
2022-11-05T13:27:36.237Z,100397.12
2022-11-05T13:28:44.907Z,100393.59
2022-11-05T13:31:04.289Z,100384.91
2022-11-05T13:33:36.625Z,100386.61
2022-11-05T13:34:39.270Z,100390.81
2022-11-05T13:36:09.473Z,100391.66
2022-11-05T13:37:11.615Z,100399.70
2022-11-05T13:38:23.614Z,100402.38
2022-11-05T13:39:33.247Z,100403.36
2022-11-05T13:42:22.447Z,100415.12
2022-11-05T13:43:31.257Z,100417.59
2022-11-05T13:44:40.930Z,100427.45
2022-11-05T13:46:05.410Z,100424.84
2022-11-05T13:47:20.323Z,100441.78
2022-11-05T13:48:30.042Z,100437.37
2022-11-05T13:49:54.731Z,100437.37
2022-11-05T13:51:09.943Z,100435.55
2022-11-05T13:54:13.351Z,100440.27
2022-11-05T13:55:20.159Z,100440.91
2022-11-05T13:58:01.165Z,100446.66
2022-11-05T14:01:03.754Z,100457.28
2022-11-05T14:02:16.812Z,100450.76
2022-11-05T14:03:20.540Z,100451.61
2022-11-05T14:04:32.059Z,100450.76
2022-11-05T14:05:37.625Z,100448.94
2022-11-05T14:06:40.451Z,100449.81
2022-11-05T14:07:44.720Z,100457.75
2022-11-05T14:08:46.770Z,100464.84
2022-11-05T14:11:33.416Z,100458.75
2022-11-05T14:12:36.054Z,100464.55
2022-11-05T14:13:40.440Z,100454.69
2022-11-05T14:14:44.286Z,100467.98
2022-11-05T14:16:01.859Z,100471.64
2022-11-05T14:17:11.277Z,100458.25
2022-11-05T14:18:37.335Z,100463.61
2022-11-05T14:20:04.034Z,100467.05
2022-11-05T14:21:28.605Z,100462.63
2022-11-05T14:22:35.193Z,100459.10
2022-11-05T14:23:40.988Z,100459.95
2022-11-05T14:24:43.239Z,100451.07
2022-11-05T14:25:51.766Z,100452.80
2022-11-05T14:27:04.261Z,100452.80
2022-11-05T14:28:38.881Z,100447.35
2022-11-05T14:29:45.283Z,100454.44
2022-11-05T14:30:47.776Z,100452.61
2022-11-05T14:32:08.505Z,100454.25
2022-11-05T14:33:03.527Z,100456.92
2022-11-05T14:34:15.790Z,100458.66
2022-11-05T14:35:21.822Z,100462.09
2022-11-05T14:36:29.903Z,100463.82
2022-11-05T14:38:54.331Z,100468.47
2022-11-05T14:41:38.071Z,100482.52
2022-11-05T14:42:40.857Z,100483.01
2022-11-05T14:44:00.479Z,100476.77
2022-11-05T14:45:14.948Z,100482.06
2022-11-05T14:46:18.553Z,100483.77
2022-11-05T14:47:21.048Z,100489.91
2022-11-05T14:50:08.618Z,100484.75
2022-11-05T14:52:55.429Z,100481.88
2022-11-05T14:54:05.327Z,100490.47
2022-11-05T14:55:11.715Z,100497.55
2022-11-05T14:56:17.970Z,100493.08
2022-11-05T14:57:42.498Z,100503.70
2022-11-05T14:58:45.941Z,100500.92
2022-11-05T15:01:09.423Z,100499.30
2022-11-05T15:02:17.854Z,100493.64
2022-11-05T15:03:46.287Z,100501.58
2022-11-05T15:04:46.137Z,100505.23
2022-11-05T15:05:52.454Z,100496.22
2022-11-05T15:07:05.509Z,100501.58
2022-11-05T15:08:35.393Z,100506.09
2022-11-05T15:09:42.284Z,100505.14
2022-11-05T15:10:44.526Z,100510.50
2022-11-05T15:13:13.243Z,100516.81
2022-11-05T15:14:37.074Z,100510.41
2022-11-05T15:15:44.107Z,100504.19
2022-11-05T15:16:55.814Z,100505.89
2022-11-05T15:18:07.304Z,100506.68
2022-11-05T15:19:28.474Z,100500.44
2022-11-05T15:20:40.425Z,100506.68
2022-11-05T15:21:42.743Z,100511.16
2022-11-05T15:22:48.749Z,100512.13
2022-11-05T15:23:53.848Z,100508.48
2022-11-05T15:24:58.143Z,100512.98
2022-11-05T15:26:25.571Z,100513.84
2022-11-05T15:28:54.019Z,100514.92
2022-11-05T15:29:56.601Z,100515.47
2022-11-05T15:31:14.925Z,100506.48
2022-11-05T15:32:17.785Z,100510.99
2022-11-05T15:33:21.194Z,100507.34
2022-11-05T15:34:25.245Z,100511.84
2022-11-05T15:35:28.606Z,100510.90
2022-11-05T15:36:32.310Z,100505.54
2022-11-05T15:37:36.835Z,100513.48
2022-11-05T15:38:40.465Z,100510.80
2022-11-05T15:39:44.068Z,100509.92
2022-11-05T15:40:46.357Z,100511.45
2022-11-05T15:41:48.573Z,100522.17
2022-11-05T15:43:10.132Z,100521.23
2022-11-05T15:44:27.100Z,100520.28
2022-11-05T15:45:29.494Z,100508.61
2022-11-05T15:46:32.644Z,100516.66
2022-11-05T15:47:34.981Z,100507.73
2022-11-05T15:48:37.791Z,100505.94
2022-11-05T15:49:42.467Z,100506.88
2022-11-05T15:50:45.502Z,100512.34
2022-11-05T15:51:47.536Z,100516.72
2022-11-05T15:52:51.480Z,100519.40
2022-11-05T15:54:23.943Z,100507.83
2022-11-05T15:55:15.315Z,100514.04
2022-11-05T15:56:24.426Z,100514.04
2022-11-05T15:57:29.866Z,100516.72
2022-11-05T15:58:34.803Z,100512.23
2022-11-05T15:59:36.945Z,100519.40
2022-11-05T16:00:39.126Z,100514.04
2022-11-05T16:03:18.517Z,100518.75
2022-11-05T16:04:26.214Z,100527.44
2022-11-05T16:05:34.065Z,100525.64
2022-11-05T16:06:38.456Z,100522.08
2022-11-05T16:07:42.153Z,100529.27
2022-11-05T16:08:46.882Z,100524.86
2022-11-05T16:09:58.474Z,100525.73
2022-11-05T16:11:01.595Z,100521.33
2022-11-05T16:12:20.237Z,100528.61
2022-11-05T16:13:33.171Z,100521.52
2022-11-05T16:14:35.322Z,100522.66
2022-11-05T16:15:37.250Z,100523.11
2022-11-05T16:16:40.351Z,100526.92
2022-11-05T16:17:50.023Z,100538.63
2022-11-05T16:18:53.167Z,100538.63
2022-11-05T16:19:55.216Z,100537.73
2022-11-05T16:21:06.214Z,100537.64
2022-11-05T16:22:08.611Z,100537.73
2022-11-05T16:23:24.083Z,100537.23
2022-11-05T16:24:29.445Z,100539.16
2022-11-05T16:25:38.515Z,100549.97
2022-11-05T16:27:01.989Z,100550.06
2022-11-05T16:27:45.202Z,100549.18
2022-11-05T16:28:49.483Z,100559.05
2022-11-05T16:29:56.116Z,100557.22
2022-11-05T16:31:03.051Z,100552.74
2022-11-05T16:32:07.903Z,100558.95
2022-11-05T16:33:12.556Z,100557.12
2022-11-05T16:35:38.488Z,100541.30
2022-11-05T16:36:40.673Z,100551.07
2022-11-05T16:37:46.365Z,100553.15
2022-11-05T16:38:47.405Z,100553.34
2022-11-05T16:39:50.105Z,100556.86
2022-11-05T16:40:52.489Z,100552.30
2022-11-05T16:41:54.513Z,100558.41
2022-11-05T16:42:56.621Z,100561.00
2022-11-05T16:43:59.174Z,100559.11
2022-11-05T16:45:02.440Z,100561.72
2022-11-05T16:46:06.657Z,100559.80
2022-11-05T16:47:09.055Z,100561.53
2022-11-05T16:48:12.016Z,100557.91
2022-11-05T16:49:15.016Z,100561.44
2022-11-05T16:50:25.745Z,100558.67
2022-11-05T16:51:27.909Z,100556.88
2022-11-05T16:52:31.154Z,100569.23
2022-11-05T16:53:33.192Z,100562.89
2022-11-05T16:54:35.779Z,100569.13
2022-11-05T16:55:38.968Z,100567.30
2022-11-05T16:56:42.261Z,100569.98
2022-11-05T16:57:45.909Z,100572.66
2022-11-05T16:58:49.766Z,100562.89
2022-11-05T16:59:53.037Z,100554.76
2022-11-05T17:01:07.598Z,100556.40
2022-11-05T17:02:10.848Z,100557.28
2022-11-05T17:03:13.018Z,100561.66
2022-11-05T17:04:15.219Z,100560.72
2022-11-05T17:05:27.503Z,100556.23
2022-11-05T17:06:30.122Z,100552.67
2022-11-05T17:07:35.839Z,100557.09
2022-11-05T17:08:36.793Z,100555.36
2022-11-05T17:09:39.245Z,100556.23
2022-11-05T17:10:41.441Z,100557.94
2022-11-05T17:11:44.512Z,100553.47
2022-11-05T17:12:46.763Z,100551.64
2022-11-05T17:13:51.457Z,100555.16
2022-11-05T17:14:54.133Z,100559.58
2022-11-05T17:15:56.217Z,100561.41
2022-11-05T17:17:01.415Z,100550.69
2022-11-05T17:18:04.139Z,100555.16
2022-11-05T17:19:07.407Z,100560.46
2022-11-05T17:21:26.494Z,100551.75
2022-11-05T17:22:28.485Z,100555.00
2022-11-05T17:23:30.566Z,100557.78
2022-11-05T17:24:33.122Z,100558.73
2022-11-05T17:25:35.211Z,100553.37
2022-11-05T17:26:37.940Z,100553.27
2022-11-05T17:27:40.025Z,100555.10
2022-11-05T17:28:42.050Z,100555.00
2022-11-05T17:29:45.370Z,100547.91
2022-11-05T17:30:52.389Z,100554.12
2022-11-05T17:31:51.937Z,100543.50
2022-11-05T17:32:54.134Z,100551.54
2022-11-05T17:33:58.179Z,100545.23
2022-11-05T17:35:00.383Z,100545.23
2022-11-05T17:37:19.782Z,100541.82
2022-11-05T17:38:23.976Z,100547.06
2022-11-05T17:39:31.361Z,100538.14
2022-11-05T17:40:30.346Z,100549.80
2022-11-05T17:41:33.250Z,100553.47
2022-11-05T17:42:35.384Z,100545.52
2022-11-05T17:43:38.310Z,100548.27
2022-11-05T17:44:40.548Z,100538.63
2022-11-05T17:45:45.521Z,100544.05
2022-11-05T17:46:47.780Z,100535.16
2022-11-05T17:47:51.024Z,100543.19
2022-11-05T17:48:53.187Z,100534.50
2022-11-05T17:49:55.296Z,100538.97
2022-11-05T17:50:57.596Z,100547.10
2022-11-05T17:52:00.182Z,100536.39
2022-11-05T17:53:02.195Z,100545.37
2022-11-05T17:54:04.391Z,100548.05
2022-11-05T17:55:07.149Z,100549.97
2022-11-05T17:56:11.616Z,100553.59
2022-11-05T17:57:13.810Z,100556.27
2022-11-05T17:58:16.733Z,100560.78
2022-11-05T17:59:18.821Z,100556.43
2022-11-05T18:00:22.386Z,100561.97
2022-11-05T18:02:39.716Z,100557.81
2022-11-05T18:03:41.998Z,100562.91
2022-11-05T18:04:44.106Z,100566.63
2022-11-05T18:05:46.127Z,100568.45
2022-11-05T18:06:49.615Z,100573.81
2022-11-05T18:07:51.874Z,100571.14
2022-11-05T18:08:56.905Z,100560.42
2022-11-05T18:10:00.292Z,100564.80
2022-11-05T18:11:02.487Z,100562.13
2022-11-05T18:12:06.094Z,100570.16
2022-11-05T18:13:08.809Z,100566.63
2022-11-05T18:14:11.364Z,100565.78
2022-11-05T18:15:14.124Z,100571.98
2022-11-05T18:16:17.725Z,100569.41
2022-11-05T18:17:20.453Z,100569.59
2022-11-05T18:18:24.522Z,100574.95
2022-11-05T18:19:27.285Z,100570.44
2022-11-05T18:20:30.552Z,100573.13